Santos Dumont, Brazil
Current Conditions -  °F | °C
As of 7:00 AM on Monday 22 Dec 2014 (Local Time) from SBBQ Reporting Station
Haze Haze  
Wind Chill: 68°   Ceiling: 1100
Heat Index: 68°   Visibility: 2.5mi
Dew Point: 64°   Wind: 12mph
Humidity: 88%   Direction: 310°NW
Pressure: 30.12"   Gusts: NA
Location:  21.46°S, 43.56°W
Report Text: SBBQ 220900Z 31010KT 4000 BR BKN011 20/18 Q1020
Loading
Personal Weather Stations






























Interactive Weather Map New forecast layout! Learn more

10-Day Weather Forecast

Advertisements
Track Severe Weather on mobile